sensor_id;sensor_type;location;lat;lon;timestamp;temperature;humidity
65374;SHT31;52070;53.760;9.678;2023-08-01T00:02:12;15.98;96.76
65374;SHT31;52070;53.760;9.678;2023-08-01T00:04:39;15.94;96.68
65374;SHT31;52070;53.760;9.678;2023-08-01T00:07:06;15.90;96.60
65374;SHT31;52070;53.760;9.678;2023-08-01T00:09:33;15.88;96.51
65374;SHT31;52070;53.760;9.678;2023-08-01T00:12:00;15.90;96.48
65374;SHT31;52070;53.760;9.678;2023-08-01T00:14:29;15.81;96.44
65374;SHT31;52070;53.760;9.678;2023-08-01T00:16:56;15.80;96.43
65374;SHT31;52070;53.760;9.678;2023-08-01T00:19:23;15.74;96.38
65374;SHT31;52070;53.760;9.678;2023-08-01T00:21:50;15.74;96.45
65374;SHT31;52070;53.760;9.678;2023-08-01T00:24:17;15.70;96.53
65374;SHT31;52070;53.760;9.678;2023-08-01T00:26:45;15.71;96.63
65374;SHT31;52070;53.760;9.678;2023-08-01T00:29:13;15.71;96.70
65374;SHT31;52070;53.760;9.678;2023-08-01T00:31:41;15.70;96.81
65374;SHT31;52070;53.760;9.678;2023-08-01T00:34:08;15.74;96.87
65374;SHT31;52070;53.760;9.678;2023-08-01T00:36:36;15.70;96.98
65374;SHT31;52070;53.760;9.678;2023-08-01T00:39:03;15.71;97.09
65374;SHT31;52070;53.760;9.678;2023-08-01T00:41:30;15.70;97.13
65374;SHT31;52070;53.760;9.678;2023-08-01T00:43:57;15.68;97.13
65374;SHT31;52070;53.760;9.678;2023-08-01T00:46:24;15.68;97.16
65374;SHT31;52070;53.760;9.678;2023-08-01T00:48:53;15.67;97.21
65374;SHT31;52070;53.760;9.678;2023-08-01T00:51:24;15.67;97.26
65374;SHT31;52070;53.760;9.678;2023-08-01T00:53:51;15.64;97.28
65374;SHT31;52070;53.760;9.678;2023-08-01T00:56:18;15.63;97.30
65374;SHT31;52070;53.760;9.678;2023-08-01T00:58:45;15.61;97.35
65374;SHT31;52070;53.760;9.678;2023-08-01T01:01:12;15.55;97.33
65374;SHT31;52070;53.760;9.678;2023-08-01T01:03:40;15.58;97.36
65374;SHT31;52070;53.760;9.678;2023-08-01T01:06:12;15.61;97.40
65374;SHT31;52070;53.760;9.678;2023-08-01T01:08:42;15.58;97.42
65374;SHT31;52070;53.760;9.678;2023-08-01T01:11:09;15.58;97.43
65374;SHT31;52070;53.760;9.678;2023-08-01T01:13:36;15.63;97.44
65374;SHT31;52070;53.760;9.678;2023-08-01T01:16:04;15.63;97.47
65374;SHT31;52070;53.760;9.678;2023-08-01T01:18:31;15.67;97.49
65374;SHT31;52070;53.760;9.678;2023-08-01T01:20:59;15.68;97.52
65374;SHT31;52070;53.760;9.678;2023-08-01T01:23:27;15.61;97.48
65374;SHT31;52070;53.760;9.678;2023-08-01T01:25:55;15.67;97.52
65374;SHT31;52070;53.760;9.678;2023-08-01T01:28:23;15.64;97.49
65374;SHT31;52070;53.760;9.678;2023-08-01T01:30:51;15.67;97.51
65374;SHT31;52070;53.760;9.678;2023-08-01T01:33:19;15.63;97.50
65374;SHT31;52070;53.760;9.678;2023-08-01T01:35:47;15.64;97.51
65374;SHT31;52070;53.760;9.678;2023-08-01T01:38:16;15.67;97.47
65374;SHT31;52070;53.760;9.678;2023-08-01T01:40:43;15.65;97.48
65374;SHT31;52070;53.760;9.678;2023-08-01T01:43:10;15.65;97.48
65374;SHT31;52070;53.760;9.678;2023-08-01T01:45:37;15.67;97.51
65374;SHT31;52070;53.760;9.678;2023-08-01T01:48:04;15.70;97.50
65374;SHT31;52070;53.760;9.678;2023-08-01T01:50:31;15.73;97.52
65374;SHT31;52070;53.760;9.678;2023-08-01T01:52:58;15.71;97.53
65374;SHT31;52070;53.760;9.678;2023-08-01T01:55:27;15.74;97.55
65374;SHT31;52070;53.760;9.678;2023-08-01T01:57:54;15.74;97.59
65374;SHT31;52070;53.760;9.678;2023-08-01T02:00:21;15.73;97.58
65374;SHT31;52070;53.760;9.678;2023-08-01T02:02:48;15.74;97.61
65374;SHT31;52070;53.760;9.678;2023-08-01T02:05:15;15.75;97.63
65374;SHT31;52070;53.760;9.678;2023-08-01T02:07:43;15.74;97.64
65374;SHT31;52070;53.760;9.678;2023-08-01T02:10:10;15.74;97.68
65374;SHT31;52070;53.760;9.678;2023-08-01T02:12:38;15.75;97.70
65374;SHT31;52070;53.760;9.678;2023-08-01T02:15:06;15.74;97.65
65374;SHT31;52070;53.760;9.678;2023-08-01T02:17:33;15.75;97.77
65374;SHT31;52070;53.760;9.678;2023-08-01T02:20:01;15.75;97.80
65374;SHT31;52070;53.760;9.678;2023-08-01T02:22:28;15.77;97.80
65374;SHT31;52070;53.760;9.678;2023-08-01T02:24:55;15.77;97.83
65374;SHT31;52070;53.760;9.678;2023-08-01T02:27:22;15.83;97.87
65374;SHT31;52070;53.760;9.678;2023-08-01T02:29:51;15.88;97.87
65374;SHT31;52070;53.760;9.678;2023-08-01T02:32:18;15.88;97.90
65374;SHT31;52070;53.760;9.678;2023-08-01T02:34:45;15.92;97.90
65374;SHT31;52070;53.760;9.678;2023-08-01T02:37:13;15.97;98.00
65374;SHT31;52070;53.760;9.678;2023-08-01T02:39:40;15.98;97.99
65374;SHT31;52070;53.760;9.678;2023-08-01T02:42:07;16.05;97.98
65374;SHT31;52070;53.760;9.678;2023-08-01T02:44:34;16.05;98.01
65374;SHT31;52070;53.760;9.678;2023-08-01T02:47:03;16.09;97.99
65374;SHT31;52070;53.760;9.678;2023-08-01T02:49:31;16.09;97.97
65374;SHT31;52070;53.760;9.678;2023-08-01T02:51:59;16.09;98.02
65374;SHT31;52070;53.760;9.678;2023-08-01T02:54:26;16.12;97.98
65374;SHT31;52070;53.760;9.678;2023-08-01T02:56:54;16.15;97.95
65374;SHT31;52070;53.760;9.678;2023-08-01T02:59:21;16.21;97.91
65374;SHT31;52070;53.760;9.678;2023-08-01T03:01:48;16.21;97.87
65374;SHT31;52070;53.760;9.678;2023-08-01T03:04:16;16.18;97.85
65374;SHT31;52070;53.760;9.678;2023-08-01T03:06:44;16.18;97.76
65374;SHT31;52070;53.760;9.678;2023-08-01T03:09:11;16.16;97.76
65374;SHT31;52070;53.760;9.678;2023-08-01T03:11:38;16.19;97.74
65374;SHT31;52070;53.760;9.678;2023-08-01T03:14:05;16.18;97.70
65374;SHT31;52070;53.760;9.678;2023-08-01T03:16:32;16.21;97.74
65374;SHT31;52070;53.760;9.678;2023-08-01T03:18:59;16.18;97.74
65374;SHT31;52070;53.760;9.678;2023-08-01T03:21:32;16.19;97.72
65374;SHT31;52070;53.760;9.678;2023-08-01T03:24:00;16.19;97.72
65374;SHT31;52070;53.760;9.678;2023-08-01T03:26:27;16.22;97.66
65374;SHT31;52070;53.760;9.678;2023-08-01T03:28:55;16.22;97.65
65374;SHT31;52070;53.760;9.678;2023-08-01T03:31:22;16.21;97.58
65374;SHT31;52070;53.760;9.678;2023-08-01T03:33:49;16.22;97.56
65374;SHT31;52070;53.760;9.678;2023-08-01T03:36:16;16.24;97.56
65374;SHT31;52070;53.760;9.678;2023-08-01T03:38:45;16.24;97.52
65374;SHT31;52070;53.760;9.678;2023-08-01T03:41:12;16.24;97.51
65374;SHT31;52070;53.760;9.678;2023-08-01T03:43:40;16.22;97.40
65374;SHT31;52070;53.760;9.678;2023-08-01T03:46:07;16.24;97.38
65374;SHT31;52070;53.760;9.678;2023-08-01T03:48:35;16.22;97.39
65374;SHT31;52070;53.760;9.678;2023-08-01T03:51:02;16.22;97.38
65374;SHT31;52070;53.760;9.678;2023-08-01T03:53:30;16.18;97.34
65374;SHT31;52070;53.760;9.678;2023-08-01T03:55:58;16.19;97.30
65374;SHT31;52070;53.760;9.678;2023-08-01T03:58:25;16.19;97.27
65374;SHT31;52070;53.760;9.678;2023-08-01T04:00:52;16.19;97.20
65374;SHT31;52070;53.760;9.678;2023-08-01T04:03:19;16.21;97.12
65374;SHT31;52070;53.760;9.678;2023-08-01T04:05:47;16.18;97.05
65374;SHT31;52070;53.760;9.678;2023-08-01T04:08:14;16.19;96.98
65374;SHT31;52070;53.760;9.678;2023-08-01T04:10:41;16.18;96.94
65374;SHT31;52070;53.760;9.678;2023-08-01T04:13:09;16.18;96.90
65374;SHT31;52070;53.760;9.678;2023-08-01T04:15:37;16.21;96.92
65374;SHT31;52070;53.760;9.678;2023-08-01T04:18:04;16.15;96.91
65374;SHT31;52070;53.760;9.678;2023-08-01T04:20:31;16.16;96.91
65374;SHT31;52070;53.760;9.678;2023-08-01T04:22:58;16.14;96.91
65374;SHT31;52070;53.760;9.678;2023-08-01T04:25:27;16.15;96.95
65374;SHT31;52070;53.760;9.678;2023-08-01T04:27:54;16.15;96.98
65374;SHT31;52070;53.760;9.678;2023-08-01T04:30:22;16.16;96.90
65374;SHT31;52070;53.760;9.678;2023-08-01T04:32:49;16.15;96.83
65374;SHT31;52070;53.760;9.678;2023-08-01T04:35:16;16.12;96.75
65374;SHT31;52070;53.760;9.678;2023-08-01T04:37:43;16.11;96.70
65374;SHT31;52070;53.760;9.678;2023-08-01T04:40:11;16.09;96.68
65374;SHT31;52070;53.760;9.678;2023-08-01T04:42:38;16.08;96.70
65374;SHT31;52070;53.760;9.678;2023-08-01T04:45:06;16.09;96.65
65374;SHT31;52070;53.760;9.678;2023-08-01T04:47:35;16.08;96.69
65374;SHT31;52070;53.760;9.678;2023-08-01T04:50:02;16.06;96.68
65374;SHT31;52070;53.760;9.678;2023-08-01T04:52:30;16.08;96.66
65374;SHT31;52070;53.760;9.678;2023-08-01T04:54:57;16.09;96.65
65374;SHT31;52070;53.760;9.678;2023-08-01T04:57:24;16.11;96.62
65374;SHT31;52070;53.760;9.678;2023-08-01T04:59:51;16.15;96.58
65374;SHT31;52070;53.760;9.678;2023-08-01T05:02:18;16.14;96.56
65374;SHT31;52070;53.760;9.678;2023-08-01T05:04:46;16.12;96.52
65374;SHT31;52070;53.760;9.678;2023-08-01T05:07:13;16.14;96.59
65374;SHT31;52070;53.760;9.678;2023-08-01T05:09:41;16.14;96.57
65374;SHT31;52070;53.760;9.678;2023-08-01T05:12:08;16.11;96.46
65374;SHT31;52070;53.760;9.678;2023-08-01T05:14:35;16.09;96.41
65374;SHT31;52070;53.760;9.678;2023-08-01T05:17:03;16.06;96.42
65374;SHT31;52070;53.760;9.678;2023-08-01T05:19:30;16.06;96.28
65374;SHT31;52070;53.760;9.678;2023-08-01T05:21:58;16.08;96.24
65374;SHT31;52070;53.760;9.678;2023-08-01T05:24:25;16.08;96.18
65374;SHT31;52070;53.760;9.678;2023-08-01T05:26:52;16.08;96.16
65374;SHT31;52070;53.760;9.678;2023-08-01T05:29:20;16.02;96.00
65374;SHT31;52070;53.760;9.678;2023-08-01T05:31:47;16.06;95.84
65374;SHT31;52070;53.760;9.678;2023-08-01T05:34:14;16.06;95.77
65374;SHT31;52070;53.760;9.678;2023-08-01T05:36:41;16.09;95.68
65374;SHT31;52070;53.760;9.678;2023-08-01T05:39:09;16.08;95.67
65374;SHT31;52070;53.760;9.678;2023-08-01T05:41:37;16.05;95.57
65374;SHT31;52070;53.760;9.678;2023-08-01T05:44:04;16.05;95.48
65374;SHT31;52070;53.760;9.678;2023-08-01T05:46:31;16.12;95.52
65374;SHT31;52070;53.760;9.678;2023-08-01T05:48:58;16.12;95.52
65374;SHT31;52070;53.760;9.678;2023-08-01T05:51:25;16.16;95.55
65374;SHT31;52070;53.760;9.678;2023-08-01T05:53:52;16.14;95.52
65374;SHT31;52070;53.760;9.678;2023-08-01T05:56:21;16.19;95.45
65374;SHT31;52070;53.760;9.678;2023-08-01T05:58:48;16.21;95.46
65374;SHT31;52070;53.760;9.678;2023-08-01T06:01:16;16.21;95.37
65374;SHT31;52070;53.760;9.678;2023-08-01T06:03:43;16.18;94.95
65374;SHT31;52070;53.760;9.678;2023-08-01T06:06:10;16.16;94.62
65374;SHT31;52070;53.760;9.678;2023-08-01T06:08:37;16.28;94.83
65374;SHT31;52070;53.760;9.678;2023-08-01T06:11:04;16.39;95.07
65374;SHT31;52070;53.760;9.678;2023-08-01T06:13:33;16.41;94.73
65374;SHT31;52070;53.760;9.678;2023-08-01T06:16:00;16.41;94.43
65374;SHT31;52070;53.760;9.678;2023-08-01T06:18:27;16.45;94.29
65374;SHT31;52070;53.760;9.678;2023-08-01T06:20:54;16.42;94.26
65374;SHT31;52070;53.760;9.678;2023-08-01T06:23:22;16.42;94.21
65374;SHT31;52070;53.760;9.678;2023-08-01T06:25:49;16.41;93.88
65374;SHT31;52070;53.760;9.678;2023-08-01T06:28:16;16.41;94.03
65374;SHT31;52070;53.760;9.678;2023-08-01T06:30:45;16.41;93.77
65374;SHT31;52070;53.760;9.678;2023-08-01T06:33:12;16.39;93.89
65374;SHT31;52070;53.760;9.678;2023-08-01T06:35:39;16.41;93.79
65374;SHT31;52070;53.760;9.678;2023-08-01T06:38:06;16.36;93.61
65374;SHT31;52070;53.760;9.678;2023-08-01T06:40:33;16.38;93.63
65374;SHT31;52070;53.760;9.678;2023-08-01T06:43:00;16.39;93.44
65374;SHT31;52070;53.760;9.678;2023-08-01T06:45:27;16.48;93.71
65374;SHT31;52070;53.760;9.678;2023-08-01T06:47:56;16.53;93.58
65374;SHT31;52070;53.760;9.678;2023-08-01T06:50:23;16.51;93.26
65374;SHT31;52070;53.760;9.678;2023-08-01T06:52:50;16.60;93.09
65374;SHT31;52070;53.760;9.678;2023-08-01T06:55:17;16.66;92.93
65374;SHT31;52070;53.760;9.678;2023-08-01T06:57:44;16.72;93.09
65374;SHT31;52070;53.760;9.678;2023-08-01T07:00:12;16.65;92.44
65374;SHT31;52070;53.760;9.678;2023-08-01T07:02:39;16.59;91.97
65374;SHT31;52070;53.760;9.678;2023-08-01T07:05:08;16.57;92.33
65374;SHT31;52070;53.760;9.678;2023-08-01T07:07:35;16.67;92.53
65374;SHT31;52070;53.760;9.678;2023-08-01T07:10:02;16.59;92.38
65374;SHT31;52070;53.760;9.678;2023-08-01T07:12:29;16.59;92.59
65374;SHT31;52070;53.760;9.678;2023-08-01T07:14:56;16.51;92.43
65374;SHT31;52070;53.760;9.678;2023-08-01T07:17:23;16.45;91.95
65374;SHT31;52070;53.760;9.678;2023-08-01T07:19:50;16.53;92.11
65374;SHT31;52070;53.760;9.678;2023-08-01T07:22:18;16.62;92.42
65374;SHT31;52070;53.760;9.678;2023-08-01T07:24:45;16.62;91.52
65374;SHT31;52070;53.760;9.678;2023-08-01T07:27:12;16.75;91.45
65374;SHT31;52070;53.760;9.678;2023-08-01T07:29:39;16.86;90.98
65374;SHT31;52070;53.760;9.678;2023-08-01T07:32:07;17.02;90.48
65374;SHT31;52070;53.760;9.678;2023-08-01T07:34:34;17.19;90.81
65374;SHT31;52070;53.760;9.678;2023-08-01T07:37:01;17.38;90.67
65374;SHT31;52070;53.760;9.678;2023-08-01T07:39:29;17.45;89.42
65374;SHT31;52070;53.760;9.678;2023-08-01T07:41:56;17.42;89.18
65374;SHT31;52070;53.760;9.678;2023-08-01T07:44:23;17.28;88.94
65374;SHT31;52070;53.760;9.678;2023-08-01T07:46:51;17.27;89.58
65374;SHT31;52070;53.760;9.678;2023-08-01T07:49:18;17.34;89.69
65374;SHT31;52070;53.760;9.678;2023-08-01T07:51:45;17.27;88.94
65374;SHT31;52070;53.760;9.678;2023-08-01T07:54:12;17.28;88.56
65374;SHT31;52070;53.760;9.678;2023-08-01T07:56:40;17.35;89.21
65374;SHT31;52070;53.760;9.678;2023-08-01T07:59:09;17.47;89.40
65374;SHT31;52070;53.760;9.678;2023-08-01T08:01:37;17.51;88.50
65374;SHT31;52070;53.760;9.678;2023-08-01T08:04:05;17.52;87.32
65374;SHT31;52070;53.760;9.678;2023-08-01T08:06:33;17.51;87.14
65374;SHT31;52070;53.760;9.678;2023-08-01T08:09:00;17.68;87.37
65374;SHT31;52070;53.760;9.678;2023-08-01T08:11:27;17.85;86.58
65374;SHT31;52070;53.760;9.678;2023-08-01T08:13:55;17.89;86.09
65374;SHT31;52070;53.760;9.678;2023-08-01T08:16:22;18.01;86.90
65374;SHT31;52070;53.760;9.678;2023-08-01T08:18:49;18.08;85.99
65374;SHT31;52070;53.760;9.678;2023-08-01T08:21:16;18.13;85.44
65374;SHT31;52070;53.760;9.678;2023-08-01T08:23:44;18.29;85.64
65374;SHT31;52070;53.760;9.678;2023-08-01T08:26:11;18.15;84.13
65374;SHT31;52070;53.760;9.678;2023-08-01T08:28:38;18.23;85.41
65374;SHT31;52070;53.760;9.678;2023-08-01T08:31:09;18.17;84.29
65374;SHT31;52070;53.760;9.678;2023-08-01T08:33:36;18.13;85.31
65374;SHT31;52070;53.760;9.678;2023-08-01T08:36:03;17.88;84.31
65374;SHT31;52070;53.760;9.678;2023-08-01T08:38:30;17.67;86.02
65374;SHT31;52070;53.760;9.678;2023-08-01T08:41:06;17.34;87.41
65374;SHT31;52070;53.760;9.678;2023-08-01T08:43:34;16.96;89.10
65374;SHT31;52070;53.760;9.678;2023-08-01T08:46:02;16.65;90.50
65374;SHT31;52070;53.760;9.678;2023-08-01T08:48:31;16.52;91.75
65374;SHT31;52070;53.760;9.678;2023-08-01T08:51:02;16.48;92.45
65374;SHT31;52070;53.760;9.678;2023-08-01T08:53:30;16.44;92.97
65374;SHT31;52070;53.760;9.678;2023-08-01T08:55:59;16.44;93.37
65374;SHT31;52070;53.760;9.678;2023-08-01T08:58:26;16.41;93.60
65374;SHT31;52070;53.760;9.678;2023-08-01T09:00:53;16.33;93.63
65374;SHT31;52070;53.760;9.678;2023-08-01T09:03:21;16.26;93.62
65374;SHT31;52070;53.760;9.678;2023-08-01T09:05:50;16.29;93.45
65374;SHT31;52070;53.760;9.678;2023-08-01T09:08:19;16.41;93.36
65374;SHT31;52070;53.760;9.678;2023-08-01T09:10:47;16.59;93.88
65374;SHT31;52070;53.760;9.678;2023-08-01T09:13:14;16.83;94.22
65374;SHT31;52070;53.760;9.678;2023-08-01T09:15:42;17.17;94.11
65374;SHT31;52070;53.760;9.678;2023-08-01T09:18:10;17.35;93.24
65374;SHT31;52070;53.760;9.678;2023-08-01T09:20:41;17.50;92.28
65374;SHT31;52070;53.760;9.678;2023-08-01T09:23:10;17.58;92.07
65374;SHT31;52070;53.760;9.678;2023-08-01T09:25:38;17.68;91.18
65374;SHT31;52070;53.760;9.678;2023-08-01T09:28:17;17.79;90.66
65374;SHT31;52070;53.760;9.678;2023-08-01T09:30:46;17.85;89.83
65374;SHT31;52070;53.760;9.678;2023-08-01T09:33:13;17.92;88.89
65374;SHT31;52070;53.760;9.678;2023-08-01T09:35:40;18.08;86.63
65374;SHT31;52070;53.760;9.678;2023-08-01T09:38:12;18.03;84.22
65374;SHT31;52070;53.760;9.678;2023-08-01T09:40:39;18.28;85.94
65374;SHT31;52070;53.760;9.678;2023-08-01T09:43:07;18.63;84.10
65374;SHT31;52070;53.760;9.678;2023-08-01T09:45:34;18.91;81.67
65374;SHT31;52070;53.760;9.678;2023-08-01T09:48:01;19.21;82.56
65374;SHT31;52070;53.760;9.678;2023-08-01T09:50:29;19.15;81.12
65374;SHT31;52070;53.760;9.678;2023-08-01T09:53:07;19.01;81.75
65374;SHT31;52070;53.760;9.678;2023-08-01T09:55:35;18.76;80.80
65374;SHT31;52070;53.760;9.678;2023-08-01T09:58:04;18.60;80.76
65374;SHT31;52070;53.760;9.678;2023-08-01T10:00:32;18.49;81.43
65374;SHT31;52070;53.760;9.678;2023-08-01T10:02:59;18.52;81.17
65374;SHT31;52070;53.760;9.678;2023-08-01T10:05:29;18.59;82.89
65374;SHT31;52070;53.760;9.678;2023-08-01T10:07:58;18.64;81.34
65374;SHT31;52070;53.760;9.678;2023-08-01T10:10:26;18.86;83.48
65374;SHT31;52070;53.760;9.678;2023-08-01T10:12:56;19.51;80.16
65374;SHT31;52070;53.760;9.678;2023-08-01T10:15:24;20.00;78.30
65374;SHT31;52070;53.760;9.678;2023-08-01T10:17:52;20.02;75.12
65374;SHT31;52070;53.760;9.678;2023-08-01T10:20:20;19.95;74.74
65374;SHT31;52070;53.760;9.678;2023-08-01T10:22:48;19.41;75.96
65374;SHT31;52070;53.760;9.678;2023-08-01T10:25:17;18.98;77.10
65374;SHT31;52070;53.760;9.678;2023-08-01T10:27:44;18.60;78.88
65374;SHT31;52070;53.760;9.678;2023-08-01T10:30:12;18.40;81.26
65374;SHT31;52070;53.760;9.678;2023-08-01T10:32:40;18.22;82.15
65374;SHT31;52070;53.760;9.678;2023-08-01T10:35:08;17.95;83.32
65374;SHT31;52070;53.760;9.678;2023-08-01T10:37:42;17.64;83.13
65374;SHT31;52070;53.760;9.678;2023-08-01T10:40:09;17.45;83.89
65374;SHT31;52070;53.760;9.678;2023-08-01T10:42:37;17.31;85.02
65374;SHT31;52070;53.760;9.678;2023-08-01T10:45:05;17.17;85.29
65374;SHT31;52070;53.760;9.678;2023-08-01T10:47:34;17.06;86.18
65374;SHT31;52070;53.760;9.678;2023-08-01T10:50:01;16.86;86.53
65374;SHT31;52070;53.760;9.678;2023-08-01T10:52:29;16.60;86.25
65374;SHT31;52070;53.760;9.678;2023-08-01T10:54:57;16.48;86.74
65374;SHT31;52070;53.760;9.678;2023-08-01T10:57:26;16.35;86.86
65374;SHT31;52070;53.760;9.678;2023-08-01T10:59:54;16.24;87.33
65374;SHT31;52070;53.760;9.678;2023-08-01T11:02:23;16.19;88.37
65374;SHT31;52070;53.760;9.678;2023-08-01T11:05:03;16.00;89.11
65374;SHT31;52070;53.760;9.678;2023-08-01T11:07:31;15.98;89.97
65374;SHT31;52070;53.760;9.678;2023-08-01T11:10:06;15.87;90.64
65374;SHT31;52070;53.760;9.678;2023-08-01T11:12:37;15.81;90.96
65374;SHT31;52070;53.760;9.678;2023-08-01T11:15:06;15.77;91.45
65374;SHT31;52070;53.760;9.678;2023-08-01T11:17:34;15.67;91.29
65374;SHT31;52070;53.760;9.678;2023-08-01T11:20:05;15.68;91.59
65374;SHT31;52070;53.760;9.678;2023-08-01T11:22:34;15.71;91.99
65374;SHT31;52070;53.760;9.678;2023-08-01T11:25:01;15.78;91.47
65374;SHT31;52070;53.760;9.678;2023-08-01T11:27:29;16.08;91.58
65374;SHT31;52070;53.760;9.678;2023-08-01T11:29:56;16.46;91.45
65374;SHT31;52070;53.760;9.678;2023-08-01T11:32:33;16.87;91.50
65374;SHT31;52070;53.760;9.678;2023-08-01T11:35:00;17.42;90.13
65374;SHT31;52070;53.760;9.678;2023-08-01T11:37:30;17.64;87.13
65374;SHT31;52070;53.760;9.678;2023-08-01T11:40:00;18.23;87.84
65374;SHT31;52070;53.760;9.678;2023-08-01T11:42:30;18.76;86.77
65374;SHT31;52070;53.760;9.678;2023-08-01T11:45:08;19.00;85.44
65374;SHT31;52070;53.760;9.678;2023-08-01T11:47:36;19.34;83.30
65374;SHT31;52070;53.760;9.678;2023-08-01T11:50:03;19.89;85.64
65374;SHT31;52070;53.760;9.678;2023-08-01T11:52:32;20.06;81.63
65374;SHT31;52070;53.760;9.678;2023-08-01T11:55:00;19.24;80.48
65374;SHT31;52070;53.760;9.678;2023-08-01T11:57:27;18.90;83.04
65374;SHT31;52070;53.760;9.678;2023-08-01T11:59:55;18.42;84.32
65374;SHT31;52070;53.760;9.678;2023-08-01T12:02:23;18.05;84.94
65374;SHT31;52070;53.760;9.678;2023-08-01T12:04:51;17.86;85.76
65374;SHT31;52070;53.760;9.678;2023-08-01T12:07:19;17.74;86.43
65374;SHT31;52070;53.760;9.678;2023-08-01T12:09:56;17.79;85.99
65374;SHT31;52070;53.760;9.678;2023-08-01T12:12:23;18.13;87.29
65374;SHT31;52070;53.760;9.678;2023-08-01T12:14:51;17.95;86.10
65374;SHT31;52070;53.760;9.678;2023-08-01T12:17:18;17.91;86.79
65374;SHT31;52070;53.760;9.678;2023-08-01T12:19:45;17.79;86.40
65374;SHT31;52070;53.760;9.678;2023-08-01T12:22:14;17.64;86.80
65374;SHT31;52070;53.760;9.678;2023-08-01T12:24:41;17.64;87.85
65374;SHT31;52070;53.760;9.678;2023-08-01T12:27:10;17.50;87.20
65374;SHT31;52070;53.760;9.678;2023-08-01T12:29:37;17.45;87.37
65374;SHT31;52070;53.760;9.678;2023-08-01T12:32:05;17.40;87.48
65374;SHT31;52070;53.760;9.678;2023-08-01T12:34:34;17.28;87.24
65374;SHT31;52070;53.760;9.678;2023-08-01T12:37:01;17.13;86.74
65374;SHT31;52070;53.760;9.678;2023-08-01T12:39:28;16.90;86.49
65374;SHT31;52070;53.760;9.678;2023-08-01T12:41:55;16.66;87.13
65374;SHT31;52070;53.760;9.678;2023-08-01T12:44:24;16.51;88.30
65374;SHT31;52070;53.760;9.678;2023-08-01T12:46:51;16.35;89.75
65374;SHT31;52070;53.760;9.678;2023-08-01T12:49:18;16.32;90.75
65374;SHT31;52070;53.760;9.678;2023-08-01T12:51:46;16.33;91.29
65374;SHT31;52070;53.760;9.678;2023-08-01T12:54:13;16.19;91.52
65374;SHT31;52070;53.760;9.678;2023-08-01T12:56:43;16.12;91.67
65374;SHT31;52070;53.760;9.678;2023-08-01T12:59:11;16.05;92.10
65374;SHT31;52070;53.760;9.678;2023-08-01T13:01:39;16.00;92.68
65374;SHT31;52070;53.760;9.678;2023-08-01T13:04:08;16.01;93.17
65374;SHT31;52070;53.760;9.678;2023-08-01T13:06:35;16.05;93.48
65374;SHT31;52070;53.760;9.678;2023-08-01T13:09:02;16.22;93.66
65374;SHT31;52070;53.760;9.678;2023-08-01T13:11:29;16.90;93.67
65374;SHT31;52070;53.760;9.678;2023-08-01T13:13:56;17.70;93.18
65374;SHT31;52070;53.760;9.678;2023-08-01T13:16:24;18.26;91.57
65374;SHT31;52070;53.760;9.678;2023-08-01T13:18:52;18.09;90.39
65374;SHT31;52070;53.760;9.678;2023-08-01T13:21:22;17.64;89.59
65374;SHT31;52070;53.760;9.678;2023-08-01T13:23:49;17.23;89.18
65374;SHT31;52070;53.760;9.678;2023-08-01T13:26:16;17.06;90.32
65374;SHT31;52070;53.760;9.678;2023-08-01T13:28:43;17.06;91.16
65374;SHT31;52070;53.760;9.678;2023-08-01T13:31:10;17.17;91.22
65374;SHT31;52070;53.760;9.678;2023-08-01T13:33:37;17.98;91.62
65374;SHT31;52070;53.760;9.678;2023-08-01T13:36:06;18.40;91.62
65374;SHT31;52070;53.760;9.678;2023-08-01T13:38:33;18.21;90.49
65374;SHT31;52070;53.760;9.678;2023-08-01T13:41:00;18.15;90.14
65374;SHT31;52070;53.760;9.678;2023-08-01T13:43:27;17.94;89.62
65374;SHT31;52070;53.760;9.678;2023-08-01T13:45:55;18.02;89.54
65374;SHT31;52070;53.760;9.678;2023-08-01T13:48:22;18.39;89.50
65374;SHT31;52070;53.760;9.678;2023-08-01T13:50:49;18.76;88.38
65374;SHT31;52070;53.760;9.678;2023-08-01T13:53:18;18.70;86.92
65374;SHT31;52070;53.760;9.678;2023-08-01T13:55:45;18.52;87.71
65374;SHT31;52070;53.760;9.678;2023-08-01T13:58:12;18.35;87.77
65374;SHT31;52070;53.760;9.678;2023-08-01T14:00:39;18.36;88.17
65374;SHT31;52070;53.760;9.678;2023-08-01T14:03:06;18.13;88.05
65374;SHT31;52070;53.760;9.678;2023-08-01T14:05:33;18.02;88.20
65374;SHT31;52070;53.760;9.678;2023-08-01T14:08:01;17.92;88.98
65374;SHT31;52070;53.760;9.678;2023-08-01T14:10:29;17.75;89.02
65374;SHT31;52070;53.760;9.678;2023-08-01T14:12:56;17.74;89.45
65374;SHT31;52070;53.760;9.678;2023-08-01T14:15:23;18.23;90.39
65374;SHT31;52070;53.760;9.678;2023-08-01T14:17:50;17.99;89.12
65374;SHT31;52070;53.760;9.678;2023-08-01T14:20:18;17.88;89.87
65374;SHT31;52070;53.760;9.678;2023-08-01T14:22:45;17.79;90.41
65374;SHT31;52070;53.760;9.678;2023-08-01T14:25:13;17.58;90.64
65374;SHT31;52070;53.760;9.678;2023-08-01T14:27:41;17.40;90.78
65374;SHT31;52070;53.760;9.678;2023-08-01T14:30:09;17.24;90.66
65374;SHT31;52070;53.760;9.678;2023-08-01T14:32:37;17.14;91.31
65374;SHT31;52070;53.760;9.678;2023-08-01T14:35:05;16.96;90.44
65374;SHT31;52070;53.760;9.678;2023-08-01T14:37:32;16.89;90.69
65374;SHT31;52070;53.760;9.678;2023-08-01T14:39:59;16.90;91.11
65374;SHT31;52070;53.760;9.678;2023-08-01T14:42:27;16.87;91.07
65374;SHT31;52070;53.760;9.678;2023-08-01T14:44:55;16.99;91.80
65374;SHT31;52070;53.760;9.678;2023-08-01T14:47:22;17.21;92.03
65374;SHT31;52070;53.760;9.678;2023-08-01T14:49:50;17.23;91.43
65374;SHT31;52070;53.760;9.678;2023-08-01T14:52:17;17.28;91.36
65374;SHT31;52070;53.760;9.678;2023-08-01T14:54:44;17.38;91.69
65374;SHT31;52070;53.760;9.678;2023-08-01T14:57:11;17.28;91.05
65374;SHT31;52070;53.760;9.678;2023-08-01T14:59:38;17.14;90.57
65374;SHT31;52070;53.760;9.678;2023-08-01T15:02:07;17.10;91.48
65374;SHT31;52070;53.760;9.678;2023-08-01T15:04:34;17.04;91.58
65374;SHT31;52070;53.760;9.678;2023-08-01T15:07:01;16.57;90.36
65374;SHT31;52070;53.760;9.678;2023-08-01T15:09:29;15.88;89.16
65374;SHT31;52070;53.760;9.678;2023-08-01T15:11:56;15.63;90.03
65374;SHT31;52070;53.760;9.678;2023-08-01T15:14:23;15.53;90.94
65374;SHT31;52070;53.760;9.678;2023-08-01T15:16:50;15.53;91.80
65374;SHT31;52070;53.760;9.678;2023-08-01T15:19:19;15.58;92.32
65374;SHT31;52070;53.760;9.678;2023-08-01T15:21:46;16.25;92.80
65374;SHT31;52070;53.760;9.678;2023-08-01T15:24:13;16.69;93.04
65374;SHT31;52070;53.760;9.678;2023-08-01T15:26:40;16.80;93.33
65374;SHT31;52070;53.760;9.678;2023-08-01T15:29:07;16.79;92.74
65374;SHT31;52070;53.760;9.678;2023-08-01T15:31:34;16.83;93.07
65374;SHT31;52070;53.760;9.678;2023-08-01T15:34:02;16.83;93.02